createdAt,value
2019-02-19T00:00:12.762Z,-1.06
2019-02-19T00:01:21.644Z,-1.07
2019-02-19T00:02:28.461Z,-1.07
2019-02-19T00:03:41.911Z,-1.06
2019-02-19T00:04:52.610Z,-1.07
2019-02-19T00:05:59.524Z,-1.07
2019-02-19T00:07:06.092Z,-1.07
2019-02-19T00:08:13.103Z,-1.08
2019-02-19T00:09:19.859Z,-1.13
2019-02-19T00:10:26.739Z,-1.13
2019-02-19T00:11:34.024Z,-1.16
2019-02-19T00:12:40.942Z,-1.16
2019-02-19T00:14:21.414Z,-1.15
2019-02-19T00:15:29.352Z,-1.13
2019-02-19T00:16:36.682Z,-1.13
2019-02-19T00:17:43.086Z,-1.07
2019-02-19T00:18:50.935Z,-1.07
2019-02-19T00:19:58.551Z,-1.12
2019-02-19T00:21:05.597Z,-1.14
2019-02-19T00:22:14.005Z,-1.16
2019-02-19T00:23:20.733Z,-1.17
2019-02-19T00:24:28.057Z,-1.17
2019-02-19T00:25:34.881Z,-1.17
2019-02-19T00:26:42.209Z,-1.20
2019-02-19T00:28:09.666Z,-1.22
2019-02-19T00:29:15.702Z,-1.25
2019-02-19T00:30:22.010Z,-1.26
2019-02-19T00:31:28.826Z,-1.28
2019-02-19T00:32:35.941Z,-1.27
2019-02-19T00:33:42.001Z,-1.29
2019-02-19T00:34:48.932Z,-1.30
2019-02-19T00:35:55.985Z,-1.32
2019-02-19T00:37:03.631Z,-1.32
2019-02-19T00:38:10.025Z,-1.32
2019-02-19T00:39:16.730Z,-1.31
2019-02-19T00:40:23.630Z,-1.31
2019-02-19T00:41:30.544Z,-1.26
2019-02-19T00:42:36.793Z,-1.25
2019-02-19T00:43:44.395Z,-1.24
2019-02-19T00:44:51.242Z,-1.23
2019-02-19T00:45:57.836Z,-1.21
2019-02-19T00:47:03.904Z,-1.21
2019-02-19T00:48:11.181Z,-1.20
2019-02-19T00:49:17.677Z,-1.24
2019-02-19T00:50:24.771Z,-1.28
2019-02-19T00:51:31.809Z,-1.32
2019-02-19T00:52:38.865Z,-1.31
2019-02-19T00:53:45.888Z,-1.28
2019-02-19T00:54:53.403Z,-1.29
2019-02-19T00:56:00.358Z,-1.27
2019-02-19T00:57:07.505Z,-1.28
2019-02-19T00:58:14.260Z,-1.26
2019-02-19T00:59:21.879Z,-1.24
2019-02-19T01:00:29.102Z,-1.24
2019-02-19T01:01:35.560Z,-1.21
2019-02-19T01:02:42.537Z,-1.23
2019-02-19T01:03:49.395Z,-1.26
2019-02-19T01:04:56.592Z,-1.29
2019-02-19T01:06:03.539Z,-1.30
2019-02-19T01:07:29.962Z,-1.31
2019-02-19T01:08:36.643Z,-1.32
2019-02-19T01:09:43.145Z,-1.37
2019-02-19T01:10:50.650Z,-1.41
2019-02-19T01:11:57.346Z,-1.45
2019-02-19T01:13:04.204Z,-1.51
2019-02-19T01:14:11.324Z,-1.56
2019-02-19T01:15:25.240Z,-1.57
2019-02-19T01:16:26.382Z,-1.59
2019-02-19T01:17:33.499Z,-1.61
2019-02-19T01:18:40.366Z,-1.65
2019-02-19T01:19:47.164Z,-1.70
2019-02-19T01:20:53.902Z,-1.71
2019-02-19T01:22:00.737Z,-1.73
2019-02-19T01:23:07.754Z,-1.75
2019-02-19T01:24:14.697Z,-1.72
2019-02-19T01:25:21.151Z,-1.70
2019-02-19T01:26:27.523Z,-1.65
2019-02-19T01:27:34.425Z,-1.64
2019-02-19T01:28:41.663Z,-1.63
2019-02-19T01:29:49.079Z,-1.63
2019-02-19T01:30:55.469Z,-1.60
2019-02-19T01:32:02.259Z,-1.61
2019-02-19T01:33:08.461Z,-1.58
2019-02-19T01:34:15.756Z,-1.58
2019-02-19T01:35:22.542Z,-1.56
2019-02-19T01:36:30.691Z,-1.60
2019-02-19T01:37:37.505Z,-1.64
2019-02-19T01:38:44.004Z,-1.66
2019-02-19T01:39:51.841Z,-1.67
2019-02-19T01:40:58.833Z,-1.68
2019-02-19T01:42:06.182Z,-1.71
2019-02-19T01:43:13.845Z,-1.72
2019-02-19T01:44:22.909Z,-1.77
2019-02-19T01:45:34.128Z,-1.77
2019-02-19T01:46:38.901Z,-1.80
2019-02-19T01:47:46.796Z,-1.78
2019-02-19T01:48:54.483Z,-1.77
2019-02-19T01:50:01.726Z,-1.76
2019-02-19T01:51:09.520Z,-1.77
2019-02-19T01:52:16.152Z,-1.77
2019-02-19T01:53:22.857Z,-1.79
2019-02-19T01:54:29.801Z,-1.77
2019-02-19T01:55:36.485Z,-1.74
2019-02-19T01:56:43.136Z,-1.74
2019-02-19T01:57:50.320Z,-1.75
2019-02-19T01:58:57.332Z,-1.72
2019-02-19T02:00:05.362Z,-1.72
2019-02-19T02:01:15.743Z,-1.70
2019-02-19T02:02:23.112Z,-1.65
2019-02-19T02:03:30.170Z,-1.66
2019-02-19T02:04:36.711Z,-1.67
2019-02-19T02:05:43.649Z,-1.66
2019-02-19T02:06:50.116Z,-1.68
2019-02-19T02:07:56.664Z,-1.66
2019-02-19T02:09:05.159Z,-1.69
2019-02-19T02:10:11.764Z,-1.69
2019-02-19T02:11:18.254Z,-1.70
2019-02-19T02:12:25.111Z,-1.73
2019-02-19T02:13:31.779Z,-1.77
2019-02-19T02:14:38.786Z,-1.80
2019-02-19T02:15:45.439Z,-1.82
2019-02-19T02:16:53.074Z,-1.81
2019-02-19T02:17:59.903Z,-1.86
2019-02-19T02:19:06.736Z,-1.86
2019-02-19T02:20:13.896Z,-1.89
2019-02-19T02:21:21.191Z,-1.88
2019-02-19T02:22:28.615Z,-1.90
2019-02-19T02:23:35.511Z,-1.85
2019-02-19T02:24:42.348Z,-1.85
2019-02-19T02:25:49.353Z,-1.85
2019-02-19T02:26:56.545Z,-1.88
2019-02-19T02:28:03.456Z,-1.88
2019-02-19T02:29:10.187Z,-1.90
2019-02-19T02:30:17.108Z,-1.88
2019-02-19T02:31:23.661Z,-1.86
2019-02-19T02:32:30.845Z,-1.85
2019-02-19T02:33:38.604Z,-1.86
2019-02-19T02:34:45.264Z,-1.92
2019-02-19T02:35:51.446Z,-1.96
2019-02-19T02:36:58.425Z,-2.00
2019-02-19T02:38:05.478Z,-2.03
2019-02-19T02:39:13.417Z,-2.04
2019-02-19T02:40:22.570Z,-2.03
2019-02-19T02:41:29.911Z,-2.05
2019-02-19T02:42:37.190Z,-2.03
2019-02-19T02:43:44.860Z,-2.02
2019-02-19T02:44:51.446Z,-2.02
2019-02-19T02:45:57.923Z,-2.00
2019-02-19T02:47:04.987Z,-1.94
2019-02-19T02:48:12.276Z,-1.93
2019-02-19T02:49:20.008Z,-1.92
2019-02-19T02:50:27.823Z,-1.93
2019-02-19T02:51:34.745Z,-1.92
2019-02-19T02:52:41.445Z,-1.96
2019-02-19T02:53:49.282Z,-2.00
2019-02-19T02:54:57.056Z,-2.04
2019-02-19T02:56:03.757Z,-2.05
2019-02-19T02:57:10.335Z,-2.09
2019-02-19T02:58:17.784Z,-2.10
2019-02-19T02:59:24.313Z,-2.14
2019-02-19T03:00:31.407Z,-2.19
2019-02-19T03:01:37.894Z,-2.21
2019-02-19T03:02:45.048Z,-2.24
2019-02-19T03:03:52.024Z,-2.28
2019-02-19T03:04:58.477Z,-2.27
2019-02-19T03:06:11.473Z,-2.27
2019-02-19T03:07:19.909Z,-2.23
2019-02-19T03:08:27.226Z,-2.23
2019-02-19T03:09:33.991Z,-2.20
2019-02-19T03:10:40.567Z,-2.17
2019-02-19T03:11:47.115Z,-2.15
2019-02-19T03:12:54.369Z,-2.14
2019-02-19T03:14:00.719Z,-2.09
2019-02-19T03:15:09.625Z,-2.09
2019-02-19T03:16:17.131Z,-2.08
2019-02-19T03:17:24.271Z,-2.08
2019-02-19T03:18:31.818Z,-2.08
2019-02-19T03:19:58.968Z,-2.07
2019-02-19T03:21:05.034Z,-2.07
2019-02-19T03:22:11.332Z,-2.09
2019-02-19T03:23:18.602Z,-2.12
2019-02-19T03:24:26.081Z,-2.13
2019-02-19T03:25:33.252Z,-2.14
2019-02-19T03:26:41.165Z,-2.16
2019-02-19T03:27:48.388Z,-2.19
2019-02-19T03:28:55.047Z,-2.20
2019-02-19T03:30:02.044Z,-2.22
2019-02-19T03:31:08.415Z,-2.20
2019-02-19T03:32:15.700Z,-2.22
2019-02-19T03:33:22.779Z,-2.23
2019-02-19T03:34:29.836Z,-2.24
2019-02-19T03:35:37.275Z,-2.22
2019-02-19T03:36:44.586Z,-2.22
2019-02-19T03:37:51.224Z,-2.22
2019-02-19T03:38:57.638Z,-2.25
2019-02-19T03:40:04.279Z,-2.21
2019-02-19T03:41:11.374Z,-2.20
2019-02-19T03:42:17.790Z,-2.18
2019-02-19T03:43:24.466Z,-2.17
2019-02-19T03:44:31.866Z,-2.15
2019-02-19T03:45:38.880Z,-2.12
2019-02-19T03:46:45.734Z,-2.12
2019-02-19T03:47:53.248Z,-2.15
2019-02-19T03:48:59.565Z,-2.21
2019-02-19T03:50:06.887Z,-2.29
2019-02-19T03:51:13.294Z,-2.31
2019-02-19T03:52:20.186Z,-2.35
2019-02-19T03:53:27.088Z,-2.36
2019-02-19T03:54:33.710Z,-2.35
2019-02-19T03:55:40.984Z,-2.31
2019-02-19T03:56:47.607Z,-2.31
2019-02-19T03:57:54.322Z,-2.35
2019-02-19T03:59:01.928Z,-2.39
2019-02-19T04:00:10.743Z,-2.42
2019-02-19T04:01:18.433Z,-2.45
2019-02-19T04:02:25.464Z,-2.45
2019-02-19T04:03:32.585Z,-2.45
2019-02-19T04:04:39.504Z,-2.42
2019-02-19T04:05:46.693Z,-2.41
2019-02-19T04:06:53.930Z,-2.37
2019-02-19T04:08:02.549Z,-2.38
2019-02-19T04:09:09.840Z,-2.33
2019-02-19T04:10:17.018Z,-2.31
2019-02-19T04:11:24.998Z,-2.31
2019-02-19T04:12:33.128Z,-2.32
2019-02-19T04:13:40.164Z,-2.32
2019-02-19T04:14:47.720Z,-2.35
2019-02-19T04:15:55.845Z,-2.34
2019-02-19T04:17:03.718Z,-2.33
2019-02-19T04:18:10.676Z,-2.30
2019-02-19T04:19:18.160Z,-2.29
2019-02-19T04:20:24.744Z,-2.31
2019-02-19T04:21:31.663Z,-2.34
2019-02-19T04:22:38.652Z,-2.33
2019-02-19T04:23:46.856Z,-2.33
2019-02-19T04:24:53.351Z,-2.31
2019-02-19T04:26:00.214Z,-2.31
2019-02-19T04:27:06.830Z,-2.31
2019-02-19T04:28:13.895Z,-2.32
2019-02-19T04:29:20.783Z,-2.32
2019-02-19T04:30:27.212Z,-2.33
2019-02-19T04:31:34.068Z,-2.40
2019-02-19T04:32:40.598Z,-2.41
2019-02-19T04:33:47.001Z,-2.37
2019-02-19T04:34:54.235Z,-2.38
2019-02-19T04:36:00.607Z,-2.36
2019-02-19T04:37:07.274Z,-2.38
2019-02-19T04:38:14.019Z,-2.38
2019-02-19T04:39:20.928Z,-2.35
2019-02-19T04:40:27.608Z,-2.33
2019-02-19T04:41:34.277Z,-2.31
2019-02-19T04:42:41.674Z,-2.33
2019-02-19T04:43:48.628Z,-2.35
2019-02-19T04:44:56.918Z,-2.33
2019-02-19T04:46:03.616Z,-2.32
2019-02-19T04:47:11.620Z,-2.26
2019-02-19T04:48:19.493Z,-2.29
2019-02-19T04:49:26.464Z,-2.31
2019-02-19T04:50:33.447Z,-2.41
2019-02-19T04:51:39.847Z,-2.47
2019-02-19T04:52:47.542Z,-2.43
2019-02-19T04:53:54.047Z,-2.44
2019-02-19T04:55:00.717Z,-2.46
2019-02-19T04:56:08.722Z,-2.48
2019-02-19T04:57:15.550Z,-2.52
2019-02-19T04:58:22.811Z,-2.53
2019-02-19T04:59:29.554Z,-2.50
2019-02-19T05:00:36.651Z,-2.47
2019-02-19T05:01:43.631Z,-2.46
2019-02-19T05:02:51.634Z,-2.44
2019-02-19T05:03:58.269Z,-2.48
2019-02-19T05:05:05.415Z,-2.48
2019-02-19T05:06:12.266Z,-2.52
2019-02-19T05:07:19.925Z,-2.53
2019-02-19T05:08:26.326Z,-2.51
2019-02-19T05:09:32.526Z,-2.43
2019-02-19T05:10:38.708Z,-2.35
2019-02-19T05:11:45.857Z,-2.30
2019-02-19T05:12:52.292Z,-2.26
2019-02-19T05:13:59.101Z,-2.22
2019-02-19T05:15:09.315Z,-2.20
2019-02-19T05:16:16.873Z,-2.17
2019-02-19T05:17:23.643Z,-2.12
2019-02-19T05:18:30.159Z,-2.03
2019-02-19T05:19:36.464Z,-1.97
2019-02-19T05:20:43.030Z,-1.92
2019-02-19T05:21:49.983Z,-1.84
2019-02-19T05:22:56.994Z,-1.78
2019-02-19T05:24:04.850Z,-1.75
2019-02-19T05:25:11.479Z,-1.76
2019-02-19T05:26:19.072Z,-1.79
2019-02-19T05:27:25.716Z,-1.81
2019-02-19T05:28:32.477Z,-1.80
2019-02-19T05:29:40.839Z,-1.79
2019-02-19T05:30:48.157Z,-1.73
2019-02-19T05:31:55.082Z,-1.69
2019-02-19T05:33:02.108Z,-1.68
2019-02-19T05:34:09.254Z,-1.67
2019-02-19T05:35:15.768Z,-1.64
2019-02-19T05:36:22.944Z,-1.65
2019-02-19T05:37:30.005Z,-1.67
2019-02-19T05:38:37.040Z,-1.63
2019-02-19T05:39:44.429Z,-1.60
2019-02-19T05:40:51.708Z,-1.60
2019-02-19T05:41:58.785Z,-1.60
2019-02-19T05:43:06.759Z,-1.61
2019-02-19T05:44:13.399Z,-1.58
2019-02-19T05:45:20.798Z,-1.55
2019-02-19T05:46:27.477Z,-1.46
2019-02-19T05:47:33.988Z,-1.48
2019-02-19T05:48:40.493Z,-1.45
2019-02-19T05:49:46.778Z,-1.39
2019-02-19T05:50:54.005Z,-1.38
2019-02-19T05:52:00.815Z,-1.39
2019-02-19T05:53:08.215Z,-1.36
2019-02-19T05:54:14.948Z,-1.31
2019-02-19T05:55:22.146Z,-1.29
2019-02-19T05:56:28.651Z,-1.27
2019-02-19T05:57:36.806Z,-1.24
2019-02-19T05:58:43.897Z,-1.20
2019-02-19T05:59:50.515Z,-1.14
2019-02-19T06:00:57.483Z,-1.09
2019-02-19T06:02:04.281Z,-1.03
2019-02-19T06:03:11.518Z,-0.95
2019-02-19T06:04:18.815Z,-0.93
2019-02-19T06:05:25.726Z,-0.93
2019-02-19T06:06:32.479Z,-0.92
2019-02-19T06:07:38.961Z,-0.95
2019-02-19T06:08:46.259Z,-0.95
2019-02-19T06:09:53.281Z,-0.95
2019-02-19T06:11:00.096Z,-0.92
2019-02-19T06:12:07.065Z,-0.86
2019-02-19T06:13:13.735Z,-0.79
2019-02-19T06:14:20.294Z,-0.73
2019-02-19T06:15:27.396Z,-0.70
2019-02-19T06:16:34.299Z,-0.70
2019-02-19T06:17:40.761Z,-0.66
2019-02-19T06:18:48.287Z,-0.61
2019-02-19T06:19:55.666Z,-0.55
2019-02-19T06:21:02.268Z,-0.50
2019-02-19T06:22:08.998Z,-0.43
2019-02-19T06:23:16.329Z,-0.47
2019-02-19T06:24:23.521Z,-0.49
2019-02-19T06:25:29.713Z,-0.49
2019-02-19T06:26:36.727Z,-0.49
2019-02-19T06:27:44.426Z,-0.48
2019-02-19T06:28:57.544Z,-0.45
2019-02-19T06:30:14.632Z,-0.42
2019-02-19T06:31:21.726Z,-0.36
2019-02-19T06:32:30.376Z,-0.27
2019-02-19T06:33:38.058Z,-0.19
2019-02-19T06:34:44.026Z,-0.14
2019-02-19T06:35:50.301Z,-0.13
2019-02-19T06:36:57.269Z,-0.05
2019-02-19T06:38:03.242Z,0.00
2019-02-19T06:39:09.683Z,0.06
2019-02-19T06:40:27.668Z,0.10
2019-02-19T06:41:34.685Z,0.16
2019-02-19T06:42:41.427Z,0.27
2019-02-19T06:43:49.718Z,0.34
2019-02-19T06:44:55.933Z,0.39
2019-02-19T06:46:04.309Z,0.47
2019-02-19T06:47:10.733Z,0.50
2019-02-19T06:48:17.998Z,0.52
2019-02-19T06:49:25.386Z,0.54
2019-02-19T06:50:34.460Z,0.60
2019-02-19T06:51:42.022Z,0.65
2019-02-19T06:52:49.108Z,0.64
2019-02-19T06:53:56.140Z,0.64
2019-02-19T06:55:04.762Z,0.62
2019-02-19T06:56:12.991Z,0.61
2019-02-19T06:57:19.749Z,0.64
2019-02-19T06:58:26.773Z,0.68
2019-02-19T06:59:35.422Z,0.77
2019-02-19T07:00:41.578Z,0.81
2019-02-19T07:02:04.634Z,0.82
2019-02-19T07:03:18.425Z,0.83
2019-02-19T07:04:26.415Z,0.86
2019-02-19T07:05:33.855Z,0.89
2019-02-19T07:06:40.595Z,0.94
2019-02-19T07:07:48.157Z,0.97
2019-02-19T07:08:54.887Z,0.99
2019-02-19T07:10:02.087Z,1.00
2019-02-19T07:11:08.646Z,1.02
2019-02-19T07:12:15.447Z,1.07
2019-02-19T07:13:22.295Z,1.12
2019-02-19T07:14:29.453Z,1.16
2019-02-19T07:15:37.147Z,1.18
2019-02-19T07:16:44.429Z,1.22
2019-02-19T07:17:50.959Z,1.27
2019-02-19T07:18:58.371Z,1.30
2019-02-19T07:20:07.691Z,1.34
2019-02-19T07:21:15.422Z,1.38
2019-02-19T07:22:22.642Z,1.41
2019-02-19T07:23:30.250Z,1.49
2019-02-19T07:24:37.057Z,1.57
2019-02-19T07:25:44.215Z,1.64
2019-02-19T07:26:51.351Z,1.67
2019-02-19T07:27:58.297Z,1.70
2019-02-19T07:29:06.515Z,1.70
2019-02-19T07:30:13.744Z,1.74
2019-02-19T07:31:21.384Z,1.79
2019-02-19T07:32:28.884Z,1.86
2019-02-19T07:33:35.757Z,1.92
2019-02-19T07:34:42.965Z,2.00
2019-02-19T07:35:50.861Z,2.07
2019-02-19T07:36:58.184Z,2.15
2019-02-19T07:38:04.900Z,2.23
2019-02-19T07:39:12.442Z,2.31
2019-02-19T07:40:19.053Z,2.36
2019-02-19T07:41:26.270Z,2.44
2019-02-19T07:42:34.599Z,2.46
2019-02-19T07:43:41.301Z,2.54
2019-02-19T07:44:48.436Z,2.61
2019-02-19T07:45:55.480Z,2.65
2019-02-19T07:47:02.506Z,2.69
2019-02-19T07:48:09.144Z,2.75
2019-02-19T07:49:16.153Z,2.79
2019-02-19T07:50:23.184Z,2.84
2019-02-19T07:51:30.633Z,2.91
2019-02-19T07:52:37.570Z,2.97
2019-02-19T07:53:44.555Z,3.01
2019-02-19T07:54:51.878Z,3.08
2019-02-19T07:56:00.990Z,3.12
2019-02-19T07:57:08.281Z,3.16
2019-02-19T07:58:15.461Z,3.22
2019-02-19T07:59:23.232Z,3.28
2019-02-19T08:00:32.905Z,3.32
2019-02-19T08:01:41.900Z,3.39
2019-02-19T08:02:49.584Z,3.45
2019-02-19T08:03:58.385Z,3.52
2019-02-19T08:05:06.526Z,3.62
2019-02-19T08:06:14.523Z,3.72
2019-02-19T08:07:21.294Z,3.80
2019-02-19T08:08:28.484Z,3.87
2019-02-19T08:09:35.446Z,3.94
2019-02-19T08:10:42.835Z,4.02
2019-02-19T08:11:49.620Z,4.09
2019-02-19T08:12:56.413Z,4.18
2019-02-19T08:14:03.626Z,4.26
2019-02-19T08:15:14.933Z,4.29
2019-02-19T08:16:21.974Z,4.39
2019-02-19T08:17:33.269Z,4.45
2019-02-19T08:18:36.895Z,4.49
2019-02-19T08:19:44.052Z,4.54
2019-02-19T08:20:51.340Z,4.62
2019-02-19T08:21:58.283Z,4.70
2019-02-19T08:23:06.676Z,4.78
2019-02-19T08:24:15.329Z,4.83
2019-02-19T08:25:22.901Z,4.92
2019-02-19T08:26:30.226Z,5.02
2019-02-19T08:27:37.023Z,5.09
2019-02-19T08:28:44.003Z,5.18
2019-02-19T08:29:51.258Z,5.25
2019-02-19T08:30:57.392Z,5.31
2019-02-19T08:32:04.423Z,5.40
2019-02-19T08:33:12.165Z,5.45
2019-02-19T08:34:19.120Z,5.52
2019-02-19T08:35:25.667Z,5.57
2019-02-19T08:36:34.765Z,5.62
2019-02-19T08:37:41.948Z,5.69
2019-02-19T08:38:48.958Z,5.75
2019-02-19T08:39:55.963Z,5.74
2019-02-19T08:41:03.785Z,5.76
2019-02-19T08:42:10.143Z,5.76
2019-02-19T08:43:17.376Z,5.80
2019-02-19T08:44:24.403Z,5.82
2019-02-19T08:45:31.518Z,5.84
2019-02-19T08:46:38.160Z,5.87
2019-02-19T08:47:45.438Z,5.88
2019-02-19T08:48:52.726Z,5.89
2019-02-19T08:50:00.698Z,5.93
2019-02-19T08:51:08.098Z,5.96
2019-02-19T08:52:15.872Z,5.97
2019-02-19T08:53:22.570Z,6.00
2019-02-19T08:54:29.037Z,5.99
2019-02-19T08:55:35.457Z,6.03
2019-02-19T08:56:42.859Z,6.05
2019-02-19T08:57:48.980Z,6.05
2019-02-19T08:58:55.598Z,6.08
2019-02-19T09:00:01.619Z,6.10
2019-02-19T09:01:09.823Z,6.10
2019-02-19T09:02:17.100Z,6.13
2019-02-19T09:03:23.324Z,6.12
2019-02-19T09:04:33.706Z,6.14
2019-02-19T09:05:41.624Z,6.13
2019-02-19T09:06:49.797Z,6.11
2019-02-19T09:07:57.314Z,6.11
2019-02-19T09:09:05.546Z,6.13
2019-02-19T09:10:14.643Z,6.11
2019-02-19T09:11:20.443Z,6.13
2019-02-19T09:12:28.896Z,6.19
2019-02-19T09:13:35.124Z,6.23
2019-02-19T09:14:41.179Z,6.30
2019-02-19T09:15:48.177Z,6.36
2019-02-19T09:16:53.963Z,6.41
2019-02-19T09:18:00.273Z,6.46
2019-02-19T09:19:07.077Z,6.49
2019-02-19T09:20:15.199Z,6.53
2019-02-19T09:21:21.904Z,6.59
2019-02-19T09:22:28.765Z,6.63
2019-02-19T09:23:35.564Z,6.69
2019-02-19T09:24:42.727Z,6.78
2019-02-19T09:25:48.538Z,6.79
2019-02-19T09:26:55.627Z,6.79
2019-02-19T09:28:02.580Z,6.81
2019-02-19T09:29:09.125Z,6.80
2019-02-19T09:30:15.819Z,6.81
2019-02-19T09:31:22.680Z,6.85
2019-02-19T09:32:28.657Z,6.90
2019-02-19T09:33:36.004Z,6.97
2019-02-19T09:34:42.084Z,6.99
2019-02-19T09:35:50.538Z,7.03
2019-02-19T09:36:56.754Z,7.05
2019-02-19T09:38:02.900Z,7.08
2019-02-19T09:39:09.857Z,7.12
2019-02-19T09:40:16.346Z,7.13
2019-02-19T09:41:22.918Z,7.16
2019-02-19T09:42:29.405Z,7.21
2019-02-19T09:43:36.305Z,7.24
2019-02-19T09:44:42.145Z,7.30
2019-02-19T09:45:48.977Z,7.30
2019-02-19T09:46:55.864Z,7.31
2019-02-19T09:48:01.775Z,7.31
2019-02-19T09:49:08.345Z,7.34
2019-02-19T09:50:15.486Z,7.41
2019-02-19T09:51:23.157Z,7.45
2019-02-19T09:52:29.758Z,7.51
2019-02-19T09:53:35.518Z,7.50
2019-02-19T09:54:43.438Z,7.52
2019-02-19T09:55:49.818Z,7.54
2019-02-19T09:56:55.978Z,7.56
2019-02-19T09:58:04.178Z,7.57
2019-02-19T09:59:10.425Z,7.53
2019-02-19T10:00:16.497Z,7.55
2019-02-19T10:01:23.223Z,7.58
2019-02-19T10:02:29.538Z,7.56
2019-02-19T10:03:36.606Z,7.62
2019-02-19T10:04:43.292Z,7.66
2019-02-19T10:05:49.319Z,7.70
2019-02-19T10:06:56.120Z,7.74
2019-02-19T10:08:02.826Z,7.79
2019-02-19T10:09:09.721Z,7.82
2019-02-19T10:10:21.077Z,7.87
2019-02-19T10:11:27.686Z,7.90
2019-02-19T10:12:33.833Z,7.95
2019-02-19T10:13:41.985Z,7.99
2019-02-19T10:14:47.918Z,8.04
2019-02-19T10:15:55.305Z,8.06
2019-02-19T10:17:03.299Z,8.10
2019-02-19T10:18:10.506Z,8.12
2019-02-19T10:19:16.890Z,8.16
2019-02-19T10:20:23.257Z,8.19
2019-02-19T10:21:29.675Z,8.24
2019-02-19T10:22:35.458Z,8.28
2019-02-19T10:23:41.799Z,8.30
2019-02-19T10:24:48.285Z,8.34
2019-02-19T10:25:55.045Z,8.35
2019-02-19T10:27:00.817Z,8.37
2019-02-19T10:28:07.218Z,8.38
2019-02-19T10:29:15.098Z,8.38
2019-02-19T10:30:23.144Z,8.37
2019-02-19T10:31:29.185Z,8.39
2019-02-19T10:32:35.065Z,8.42
2019-02-19T10:33:42.725Z,8.45
2019-02-19T10:34:49.218Z,8.48
2019-02-19T10:35:55.215Z,8.52
2019-02-19T10:37:02.099Z,8.56
2019-02-19T10:38:08.308Z,8.57
2019-02-19T10:39:14.698Z,8.59
2019-02-19T10:40:22.425Z,8.59
2019-02-19T10:41:28.558Z,8.62
2019-02-19T10:42:34.538Z,8.63
2019-02-19T10:43:41.224Z,8.65
2019-02-19T10:44:47.145Z,8.67
2019-02-19T10:45:54.545Z,8.73
2019-02-19T10:47:02.985Z,8.77
2019-02-19T10:48:09.165Z,8.82
2019-02-19T10:49:15.198Z,8.88
2019-02-19T10:50:22.018Z,8.96
2019-02-19T10:51:29.485Z,9.06
2019-02-19T10:52:36.185Z,9.07
2019-02-19T10:53:42.844Z,9.06
2019-02-19T10:54:51.145Z,9.12
2019-02-19T10:55:56.865Z,9.20
2019-02-19T10:57:02.867Z,9.30
2019-02-19T10:58:08.979Z,9.36
2019-02-19T10:59:15.506Z,9.38
2019-02-19T11:00:43.718Z,9.41
2019-02-19T11:01:50.267Z,9.45
2019-02-19T11:02:56.198Z,9.48
2019-02-19T11:04:03.128Z,9.49
2019-02-19T11:05:11.740Z,9.53
2019-02-19T11:06:19.626Z,9.57
2019-02-19T11:07:26.658Z,9.58
2019-02-19T11:08:33.738Z,9.58
2019-02-19T11:09:40.359Z,9.63
2019-02-19T11:10:47.019Z,9.68
2019-02-19T11:11:55.619Z,9.69
2019-02-19T11:13:03.401Z,9.70
2019-02-19T11:14:10.338Z,9.73
2019-02-19T11:15:17.462Z,9.77
2019-02-19T11:16:23.645Z,9.79
2019-02-19T11:17:30.079Z,9.80
2019-02-19T11:18:57.626Z,9.79
2019-02-19T11:20:07.283Z,9.77
2019-02-19T11:21:19.355Z,9.77
2019-02-19T11:22:20.869Z,9.78
2019-02-19T11:23:27.818Z,9.81
2019-02-19T11:24:34.826Z,9.78
2019-02-19T11:25:41.626Z,9.79
2019-02-19T11:26:48.746Z,9.80
2019-02-19T11:27:54.779Z,9.80
2019-02-19T11:29:01.938Z,9.81
2019-02-19T11:30:17.554Z,9.82
2019-02-19T11:31:25.878Z,9.82
2019-02-19T11:32:34.022Z,9.86
2019-02-19T11:33:39.978Z,9.86
2019-02-19T11:34:47.619Z,9.81
2019-02-19T11:35:54.821Z,9.81
2019-02-19T11:37:01.499Z,10.01
2019-02-19T11:38:08.118Z,10.01
2019-02-19T11:39:13.985Z,10.05
2019-02-19T11:40:22.605Z,10.10
2019-02-19T11:41:29.427Z,10.13
2019-02-19T11:42:35.319Z,10.14
2019-02-19T11:43:42.359Z,10.14
2019-02-19T11:44:49.879Z,10.13
2019-02-19T11:45:56.048Z,10.15
2019-02-19T11:47:02.846Z,10.14
2019-02-19T11:48:09.247Z,10.18
2019-02-19T11:49:15.225Z,10.22
2019-02-19T11:50:21.378Z,10.25
2019-02-19T11:51:27.187Z,10.25
2019-02-19T11:52:32.938Z,10.32
2019-02-19T11:53:39.534Z,10.32
2019-02-19T11:54:45.459Z,10.38
2019-02-19T11:55:51.928Z,10.46
2019-02-19T11:56:59.180Z,10.46
2019-02-19T11:58:05.162Z,10.50
2019-02-19T11:59:11.586Z,10.53
2019-02-19T12:00:20.159Z,10.54
2019-02-19T12:01:27.748Z,10.54
2019-02-19T12:02:34.579Z,10.59
2019-02-19T12:03:41.118Z,10.59
2019-02-19T12:04:47.986Z,10.62
2019-02-19T12:05:54.985Z,10.62
2019-02-19T12:07:01.067Z,10.60
2019-02-19T12:08:07.926Z,10.67
2019-02-19T12:09:14.779Z,10.68
2019-02-19T12:10:21.262Z,10.68
2019-02-19T12:11:27.946Z,10.73
2019-02-19T12:12:37.087Z,10.73
2019-02-19T12:13:42.980Z,10.97
2019-02-19T12:14:49.427Z,10.91
2019-02-19T12:15:56.430Z,10.91
2019-02-19T12:17:02.702Z,11.02
2019-02-19T12:18:09.750Z,11.05
2019-02-19T12:19:16.268Z,11.05
2019-02-19T12:20:22.303Z,11.07
2019-02-19T12:21:29.610Z,11.04
2019-02-19T12:22:36.211Z,11.14
2019-02-19T12:23:44.377Z,11.15
2019-02-19T12:24:51.039Z,11.20
2019-02-19T12:25:57.411Z,11.20
2019-02-19T12:27:04.470Z,11.22
2019-02-19T12:28:11.997Z,11.20
2019-02-19T12:29:17.838Z,11.18
2019-02-19T12:30:24.614Z,11.16
2019-02-19T12:31:31.039Z,11.18
2019-02-19T12:32:37.310Z,11.16
2019-02-19T12:33:44.058Z,11.16
2019-02-19T12:34:52.578Z,11.18
2019-02-19T12:35:58.999Z,11.18
2019-02-19T12:37:05.716Z,11.20
2019-02-19T12:38:15.600Z,11.22
2019-02-19T12:39:23.101Z,11.23
2019-02-19T12:40:30.095Z,11.23
2019-02-19T12:41:38.002Z,11.25
2019-02-19T12:42:45.534Z,11.25
2019-02-19T12:43:52.369Z,11.26
2019-02-19T12:44:59.737Z,11.23
2019-02-19T12:46:05.987Z,11.23
2019-02-19T12:47:12.364Z,11.19
2019-02-19T12:48:19.357Z,11.20
2019-02-19T12:49:25.671Z,11.14
2019-02-19T12:50:33.144Z,11.17
2019-02-19T12:51:40.416Z,11.07
2019-02-19T12:52:46.971Z,11.01
2019-02-19T12:53:53.346Z,10.83
2019-02-19T12:55:00.059Z,10.91
2019-02-19T12:56:09.510Z,10.78
2019-02-19T12:57:16.050Z,10.78
2019-02-19T12:58:22.532Z,10.86
2019-02-19T12:59:30.791Z,10.82
2019-02-19T13:00:38.191Z,10.69
2019-02-19T13:01:43.950Z,10.68
2019-02-19T13:02:50.431Z,10.75
2019-02-19T13:03:57.633Z,10.76
2019-02-19T13:05:03.546Z,10.69
2019-02-19T13:06:10.387Z,10.77
2019-02-19T13:07:17.424Z,10.77
2019-02-19T13:08:23.443Z,10.66
2019-02-19T13:09:30.544Z,10.66
2019-02-19T13:10:37.237Z,10.60
2019-02-19T13:11:43.402Z,10.60
2019-02-19T13:12:49.837Z,10.54
2019-02-19T13:13:56.966Z,10.48
2019-02-19T13:15:03.825Z,10.43
2019-02-19T13:16:10.304Z,10.35
2019-02-19T13:17:16.821Z,10.30
2019-02-19T13:18:22.886Z,10.11
2019-02-19T13:19:32.113Z,10.11
2019-02-19T13:20:39.146Z,10.22
2019-02-19T13:21:45.861Z,10.16
2019-02-19T13:22:52.168Z,10.16
2019-02-19T13:23:59.551Z,10.13
2019-02-19T13:25:09.750Z,10.10
2019-02-19T13:26:16.389Z,10.10
2019-02-19T13:27:22.550Z,10.09
2019-02-19T13:28:31.549Z,10.11
2019-02-19T13:29:39.650Z,10.12
2019-02-19T13:30:45.416Z,10.09
2019-02-19T13:31:52.206Z,10.03
2019-02-19T13:32:59.633Z,10.01
2019-02-19T13:34:07.527Z,9.97
2019-02-19T13:35:15.348Z,9.93
2019-02-19T13:36:22.533Z,9.89
2019-02-19T13:37:28.928Z,9.86
2019-02-19T13:38:36.094Z,9.87
2019-02-19T13:39:42.414Z,9.83
2019-02-19T13:40:48.653Z,9.81
2019-02-19T13:41:56.053Z,9.77
2019-02-19T13:43:02.089Z,9.77
2019-02-19T13:44:08.967Z,9.75
2019-02-19T13:45:17.633Z,9.75
2019-02-19T13:46:23.886Z,9.72
2019-02-19T13:47:29.847Z,9.74
2019-02-19T13:48:36.266Z,9.71
2019-02-19T13:49:43.666Z,9.73
2019-02-19T13:50:50.674Z,9.74
2019-02-19T13:51:58.435Z,9.75
2019-02-19T13:53:15.754Z,9.77
2019-02-19T13:54:24.075Z,9.75
2019-02-19T13:55:31.630Z,9.76
2019-02-19T13:56:38.127Z,9.74
2019-02-19T13:57:44.367Z,9.73
2019-02-19T13:58:53.306Z,9.73
2019-02-19T14:00:00.244Z,9.71
2019-02-19T14:01:06.847Z,9.71
2019-02-19T14:02:14.891Z,9.68
2019-02-19T14:03:22.926Z,9.63
2019-02-19T14:04:28.635Z,9.59
2019-02-19T14:05:36.030Z,9.55
2019-02-19T14:06:42.542Z,9.52
2019-02-19T14:07:49.837Z,9.48
2019-02-19T14:08:57.294Z,9.43
2019-02-19T14:10:04.647Z,9.39
2019-02-19T14:11:11.613Z,9.37
2019-02-19T14:12:19.493Z,9.36
2019-02-19T14:13:25.847Z,9.33
2019-02-19T14:14:34.690Z,9.31
2019-02-19T14:15:43.590Z,9.30
2019-02-19T14:16:52.210Z,9.28
2019-02-19T14:18:00.867Z,9.27
2019-02-19T14:19:08.724Z,9.24
2019-02-19T14:20:36.565Z,9.21
2019-02-19T14:21:44.508Z,9.21
2019-02-19T14:23:13.586Z,9.20
2019-02-19T14:24:36.878Z,9.16
2019-02-19T14:25:44.413Z,9.11
2019-02-19T14:27:09.941Z,9.08
2019-02-19T14:28:20.286Z,9.07
2019-02-19T14:29:26.446Z,9.04
2019-02-19T14:30:45.991Z,9.01
2019-02-19T14:32:10.165Z,9.00
2019-02-19T14:33:33.685Z,9.00
2019-02-19T14:34:58.279Z,9.00
2019-02-19T14:36:12.861Z,8.98
2019-02-19T14:37:27.507Z,8.99
2019-02-19T14:38:40.373Z,9.00
2019-02-19T14:39:56.968Z,8.96
2019-02-19T14:41:06.288Z,8.96
2019-02-19T14:42:26.040Z,8.93